Time;durP1;ratioP1;P1;durP2;ratioP2;P2;SDS_P1;SDS_P2;PMS_P1;PMS_P2;Temp;Humidity;BMP_temperature;BMP_pressure;BME280_temperature;BME280_humidity;BME280_pressure;Samples;Min_cycle;Max_cycle;Signal;HPM_P1;HPM_P2
2022/08/01 18:07:03;;;;;;;0.98;0.90;;;;;;;31.38;36.94;99707.94;4218902;28;20221;-64
2022/08/01 18:09:08;;;;;;;1.90;1.10;;;;;;;30.81;37.68;99717.00;4217398;28;20302;-66
2022/08/01 18:11:12;;;;;;;2.88;1.13;;;;;;;31.33;36.85;99719.00;4210082;28;20253;-66
2022/08/01 18:13:16;;;;;;;1.50;0.95;;;;;;;30.66;37.78;99723.47;4218881;28;20210;-66
2022/08/01 18:15:21;;;;;;;2.45;0.93;;;;;;;30.98;37.33;99713.75;4219668;28;20339;-65
2022/08/01 18:17:27;;;;;;;2.80;1.20;;;;;;;30.66;37.86;99723.47;4218016;27;20225;-64
2022/08/01 18:19:29;;;;;;;1.92;0.88;;;;;;;31.25;37.10;99717.75;4221269;27;20652;-66
2022/08/01 18:21:32;;;;;;;1.45;1.17;;;;;;;31.18;37.37;99728.28;4221174;27;21253;-65
2022/08/01 18:23:34;;;;;;;2.38;1.00;;;;;;;31.15;37.11;99724.19;4222753;27;20226;-65
2022/08/01 18:25:37;;;;;;;7.93;1.23;;;;;;;30.85;37.69;99729.00;4222797;27;20283;-66
2022/08/01 18:27:38;;;;;;;7.85;1.45;;;;;;;30.92;37.42;99718.50;4219802;28;20907;-65
2022/08/01 18:30:00;;;;;;;5.13;1.35;;;;;;;30.83;37.71;99719.44;4219364;27;20248;-65
2022/08/01 18:32:03;;;;;;;1.77;1.08;;;;;;;30.73;37.35;99720.41;4221530;28;20230;-65
2022/08/01 18:34:05;;;;;;;4.57;1.20;;;;;;;30.42;37.87;99726.25;4219917;27;20281;-67
2022/08/01 18:36:07;;;;;;;11.43;1.58;;;;;;;31.07;37.29;99722.13;4218081;28;20232;-64
2022/08/01 18:38:18;;;;;;;11.45;1.50;;;;;;;30.52;37.71;99733.56;4222522;27;20269;-64
2022/08/01 18:40:20;;;;;;;1.88;1.33;;;;;;;29.99;38.37;99732.44;4220686;27;20250;-63
2022/08/01 18:42:23;;;;;;;1.30;0.90;;;;;;;30.15;37.95;99730.38;4220342;27;20242;-66
2022/08/01 18:44:25;;;;;;;6.75;1.25;;;;;;;30.50;37.81;99730.25;4222240;27;20810;-64
2022/08/01 18:46:26;;;;;;;5.35;1.40;;;;;;;30.28;37.81;99730.81;4220141;28;20279;-64
2022/08/01 18:48:28;;;;;;;1.50;1.40;;;;;;;30.23;37.70;99737.16;4220328;28;20225;-64
2022/08/01 18:50:30;;;;;;;2.83;1.27;;;;;;;29.63;38.39;99731.94;4221022;28;20229;-64
2022/08/01 18:52:32;;;;;;;2.72;1.23;;;;;;;29.90;38.16;99731.44;4219155;28;20222;-64
2022/08/01 18:54:33;;;;;;;1.80;1.00;;;;;;;29.92;38.20;99744.88;4221946;28;20233;-63
2022/08/01 18:56:35;;;;;;;1.77;1.10;;;;;;;30.08;37.91;99735.38;4221986;28;20840;-65
2022/08/01 18:58:38;;;;;;;2.70;1.25;;;;;;;29.70;38.11;99734.34;4217837;28;20234;-66
2022/08/01 19:00:40;;;;;;;2.45;1.55;;;;;;;30.28;37.68;99739.03;4219807;28;22028;-66
2022/08/01 19:02:42;;;;;;;1.67;0.80;;;;;;;30.48;37.33;99744.28;4220044;28;20265;-67
2022/08/01 19:04:44;;;;;;;0.88;0.80;;;;;;;30.16;37.85;99753.09;4220151;28;20233;-67
2022/08/01 19:06:47;;;;;;;2.95;1.00;;;;;;;29.53;38.61;99745.72;4219756;28;20233;-65
2022/08/01 19:08:48;;;;;;;2.72;1.17;;;;;;;30.02;37.99;99755.72;4222000;28;20263;-67
2022/08/01 19:10:50;;;;;;;1.10;0.90;;;;;;;30.13;37.65;99750.94;4221911;28;20245;-67
2022/08/01 19:12:52;;;;;;;3.55;1.20;;;;;;;29.65;38.56;99757.94;4220534;27;20230;-66
2022/08/01 19:14:53;;;;;;;2.40;0.82;;;;;;;29.77;38.57;99754.03;4223041;28;20226;-70
2022/08/01 19:16:55;;;;;;;2.75;1.00;;;;;;;29.76;38.31;99760.63;4228308;28;20234;-67
2022/08/01 19:18:57;;;;;;;2.35;1.30;;;;;;;30.12;38.03;99769.31;4223134;27;20283;-67
2022/08/01 19:21:02;;;;;;;2.60;1.05;;;;;;;30.12;38.25;99761.09;4222080;28;20698;-68
2022/08/01 19:24:16;;;;;;;2.53;1.00;;;;;;;29.98;38.37;99754.69;4227599;28;20263;-66
2022/08/01 19:25:26;;;;;;;1.33;1.23;;;;;;;29.55;38.46;99763.50;4219904;27;20234;-67
2022/08/01 19:27:30;;;;;;;1.05;1.00;;;;;;;29.88;38.49;99765.72;4221480;28;20246;-66
2022/08/01 19:29:35;;;;;;;3.00;1.08;;;;;;;29.85;38.77;99764.38;4221685;28;20640;-68
2022/08/01 19:31:39;;;;;;;2.05;1.00;;;;;;;29.61;38.85;99758.81;4218959;28;20333;-70
2022/08/01 19:33:46;;;;;;;2.05;1.10;;;;;;;29.63;38.71;99767.56;4219650;28;20229;-66
2022/08/01 19:35:51;;;;;;;2.33;0.95;;;;;;;30.02;38.18;99767.50;4219680;28;20294;-66
2022/08/01 19:37:55;;;;;;;1.33;1.10;;;;;;;29.80;38.39;99770.72;4220963;27;20294;-65
2022/08/01 19:39:58;;;;;;;1.67;0.98;;;;;;;29.78;38.59;99780.34;4220646;28;20233;-67
2022/08/01 19:41:59;;;;;;;3.78;1.13;;;;;;;30.19;38.00;99780.75;4220434;28;20237;-66
2022/08/01 19:44:02;;;;;;;1.00;0.90;;;;;;;29.92;38.36;99785.97;4220979;28;20238;-66
2022/08/01 19:46:04;;;;;;;1.17;0.90;;;;;;;30.26;38.11;99790.63;4219077;28;20226;-67
2022/08/01 19:48:06;;;;;;;2.65;1.17;;;;;;;29.97;38.44;99796.91;4197120;27;20750;-65
2022/08/01 19:50:33;;;;;;;3.15;1.30;;;;;;;30.02;38.31;99791.38;4220339;28;20346;-65
2022/08/01 19:53:02;;;;;;;2.15;1.00;;;;;;;29.56;39.02;99808.16;4220784;27;20733;-65
2022/08/01 19:55:29;;;;;;;1.88;0.90;;;;;;;29.83;38.55;99799.50;4222507;28;20237;-65
2022/08/01 19:57:57;;;;;;;1.67;1.00;;;;;;;29.68;39.10;99800.41;4221585;27;20235;-65
2022/08/01 20:00:22;;;;;;;1.83;1.00;;;;;;;29.75;38.90;99781.72;4219760;27;20241;-64
2022/08/01 20:02:29;;;;;;;1.50;1.02;;;;;;;30.10;38.45;99795.41;4223535;28;20276;-62
2022/08/01 20:04:32;;;;;;;5.85;1.33;;;;;;;29.87;38.78;99800.53;4224590;28;20626;-62
2022/08/01 20:06:34;;;;;;;5.03;1.00;;;;;;;29.51;39.41;99798.06;4224557;27;20241;-64
2022/08/01 20:08:36;;;;;;;3.70;1.10;;;;;;;29.94;38.62;99797.47;4222448;27;20874;-62
2022/08/01 20:10:39;;;;;;;5.03;1.17;;;;;;;29.34;39.80;99800.34;4223839;28;20282;-64
2022/08/01 20:12:41;;;;;;;1.38;0.98;;;;;;;29.71;39.38;99799.84;4224238;27;20290;-64
2022/08/01 20:14:43;;;;;;;3.70;1.00;;;;;;;29.73;39.04;99805.06;4223299;27;20241;-63
2022/08/01 20:16:46;;;;;;;0.90;0.90;;;;;;;29.67;39.49;99806.97;4222274;27;20239;-61
2022/08/01 20:18:48;;;;;;;2.05;0.80;;;;;;;29.39;39.93;99806.63;4220675;28;20234;-61
2022/08/01 20:20:51;;;;;;;2.15;1.08;;;;;;;29.06;40.37;99806.22;4222366;28;20245;-62
2022/08/01 20:22:55;;;;;;;3.03;1.15;;;;;;;29.82;39.36;99811.53;4222266;28;20268;-63
2022/08/01 20:24:58;;;;;;;6.90;1.52;;;;;;;29.94;39.18;99808.44;4224464;28;20823;-63
2022/08/01 20:27:00;;;;;;;4.85;1.48;;;;;;;30.09;38.74;99812.97;4222087;28;20742;-62
2022/08/01 20:29:03;;;;;;;3.13;1.08;;;;;;;29.54;39.72;99824.06;4222846;27;20260;-62
2022/08/01 20:31:06;;;;;;;0.95;0.95;;;;;;;29.70;39.46;99817.38;4219921;28;20775;-62
2022/08/01 20:33:10;;;;;;;1.08;0.98;;;;;;;29.80;39.51;99828.28;4218778;28;20921;-62
2022/08/01 20:35:12;;;;;;;3.90;1.10;;;;;;;29.53;39.67;99825.97;4223947;28;20743;-62
2022/08/01 20:37:18;;;;;;;1.48;1.10;;;;;;;29.42;40.00;99825.25;4224298;27;20237;-62
2022/08/01 20:39:42;;;;;;;0.98;0.80;;;;;;;29.52;39.87;99804.34;4221485;28;20728;-62
2022/08/01 20:41:51;;;;;;;2.80;1.15;;;;;;;29.58;39.60;99816.91;4220885;27;20282;-62
2022/08/01 20:44:03;;;;;;;1.33;1.00;;;;;;;29.01;40.58;99828.16;4223414;27;20393;-62
2022/08/01 20:46:05;;;;;;;1.75;1.23;;;;;;;29.14;40.45;99826.72;4223239;28;20281;-62
2022/08/01 20:48:07;;;;;;;1.02;0.93;;;;;;;29.16;40.32;99823.72;4223856;28;20234;-62
2022/08/01 20:52:51;;;;;;;3.53;1.30;;;;;;;29.05;40.71;99826.50;4222557;27;20295;-62
2022/08/01 20:54:54;;;;;;;3.70;1.20;;;;;;;29.48;39.83;99823.28;4222205;28;20742;-63
2022/08/01 20:57:04;;;;;;;3.50;1.10;;;;;;;29.23;40.58;99818.78;4224074;27;20267;-61
2022/08/01 20:59:43;;;;;;;4.57;1.35;;;;;;;28.98;41.01;99822.44;4221489;27;20302;-63
2022/08/01 21:02:03;;;;;;;4.05;1.30;;;;;;;29.19;40.39;99806.72;4211260;28;20249;-63
2022/08/01 21:04:07;;;;;;;2.33;1.20;;;;;;;28.64;41.55;99810.22;4222628;28;20643;-62
2022/08/01 21:06:13;;;;;;;1.50;1.15;;;;;;;28.76;41.18;99809.91;4219319;28;20237;-63
2022/08/01 21:08:25;;;;;;;3.08;1.20;;;;;;;28.89;40.77;99808.50;4218884;28;20237;-63
2022/08/01 21:10:28;;;;;;;1.52;1.10;;;;;;;28.27;42.04;99810.56;4224158;27;20238;-61
2022/08/01 21:12:59;;;;;;;2.47;1.02;;;;;;;28.82;40.91;99802.53;4220508;28;20229;-61
2022/08/01 21:15:02;;;;;;;2.33;1.30;;;;;;;28.14;42.22;99820.13;4222607;28;20242;-62
2022/08/01 21:17:09;;;;;;;2.80;1.20;;;;;;;28.61;41.47;99821.69;4222618;27;20241;-62
2022/08/01 21:19:15;;;;;;;5.05;1.75;;;;;;;28.70;41.16;99811.88;4219392;28;20228;-62
2022/08/01 21:21:24;;;;;;;4.47;1.80;;;;;;;28.15;42.27;99830.00;4222795;28;20249;-62
2022/08/01 21:23:38;;;;;;;3.97;1.30;;;;;;;27.97;42.33;99834.06;4222544;27;21769;-61
2022/08/01 21:25:42;;;;;;;3.58;1.20;;;;;;;28.33;41.85;99829.44;4222239;28;20330;-62
2022/08/01 21:27:47;;;;;;;3.08;2.03;;;;;;;27.86;42.77;99833.25;4222048;27;20350;-61
2022/08/01 21:29:49;;;;;;;2.90;1.38;;;;;;;28.14;41.98;99817.38;4222622;27;20234;-62
2022/08/01 21:32:10;;;;;;;2.60;1.40;;;;;;;27.63;43.16;99824.50;4220567;28;20256;-63
2022/08/01 21:34:15;;;;;;;2.22;1.23;;;;;;;27.84;42.46;99816.31;4221139;28;20229;-62
2022/08/01 21:36:18;;;;;;;2.45;1.35;;;;;;;27.91;42.66;99819.59;4221896;28;20226;-62
2022/08/01 21:38:21;;;;;;;3.60;1.20;;;;;;;27.48;43.50;99818.16;4222140;27;20237;-62
2022/08/01 21:40:23;;;;;;;3.20;1.30;;;;;;;27.79;42.88;99817.13;4223582;28;20242;-63
2022/08/01 21:42:27;;;;;;;1.70;1.55;;;;;;;27.79;42.77;99821.78;4222436;27;20234;-62
2022/08/01 21:44:30;;;;;;;3.13;1.45;;;;;;;27.92;42.70;99829.44;4222701;27;20464;-62
2022/08/01 21:46:32;;;;;;;4.00;1.58;;;;;;;28.09;42.24;99828.31;4222122;27;20353;-62
2022/08/01 21:48:36;;;;;;;3.65;1.40;;;;;;;28.21;42.10;99828.91;4223228;27;20241;-62
2022/08/01 21:50:55;;;;;;;3.92;1.50;;;;;;;28.07;42.11;99830.53;4219340;28;20290;-62
2022/08/01 21:53:52;;;;;;;4.10;1.48;;;;;;;28.31;41.79;99828.91;4221716;28;20267;-61
2022/08/01 21:56:06;;;;;;;1.75;1.25;;;;;;;27.36;43.36;99837.53;4167886;28;20255;-62
2022/08/01 21:58:30;;;;;;;1.95;1.23;;;;;;;27.61;43.36;99840.31;4150120;28;20263;-63
2022/08/01 22:00:37;;;;;;;3.72;1.30;;;;;;;27.57;43.17;99838.41;4200556;27;20321;-62
2022/08/01 22:03:06;;;;;;;2.28;1.25;;;;;;;27.89;42.79;99829.19;4227878;27;20256;-62
2022/08/01 22:05:11;;;;;;;2.05;1.23;;;;;;;27.68;42.88;99842.78;4217244;28;20286;-62
2022/08/01 22:07:16;;;;;;;3.00;1.38;;;;;;;27.84;42.78;99846.38;4204690;28;20238;-61
2022/08/01 22:09:18;;;;;;;2.47;1.70;;;;;;;27.72;42.94;99848.53;4230439;27;20643;-63
2022/08/01 22:11:27;;;;;;;2.63;1.52;;;;;;;27.73;43.02;99844.72;4221243;28;20299;-62
2022/08/01 22:13:28;;;;;;;2.70;1.33;;;;;;;27.90;42.65;99842.53;4221427;27;20241;-62
2022/08/01 22:15:30;;;;;;;1.95;1.40;;;;;;;27.60;43.00;99851.50;4222188;27;20286;-62
2022/08/01 22:17:53;;;;;;;2.00;1.25;;;;;;;27.83;42.92;99849.38;4222481;28;20233;-63
2022/08/01 22:19:55;;;;;;;3.05;1.20;;;;;;;27.61;42.92;99862.19;4222012;27;20774;-62
2022/08/01 22:21:57;;;;;;;7.13;1.80;;;;;;;27.21;44.19;99851.94;4219947;28;21023;-62
2022/08/01 22:24:01;;;;;;;3.38;1.23;;;;;;;26.67;44.90;99853.88;4221445;27;20721;-63
2022/08/01 22:26:08;;;;;;;9.63;1.60;;;;;;;27.11;44.35;99839.06;4222168;28;20303;-63
2022/08/01 22:28:14;;;;;;;1.95;1.30;;;;;;;27.24;44.25;99843.22;4217689;27;20237;-61
2022/08/01 22:30:16;;;;;;;2.85;1.40;;;;;;;27.58;43.48;99840.88;4219986;28;20275;-63
2022/08/01 22:32:18;;;;;;;4.68;1.30;;;;;;;27.59;43.31;99850.69;4220224;28;20234;-63
2022/08/01 22:34:20;;;;;;;2.53;1.40;;;;;;;27.68;43.08;99856.47;4221797;28;20286;-62
2022/08/01 22:36:22;;;;;;;3.85;1.27;;;;;;;28.00;42.50;99853.50;4222069;28;20272;-62
2022/08/01 22:38:23;;;;;;;1.67;1.40;;;;;;;27.96;42.88;99867.97;4222454;27;20234;-63
2022/08/01 22:40:25;;;;;;;3.30;1.40;;;;;;;28.41;41.87;99865.50;4221167;28;20650;-63
2022/08/01 22:42:36;;;;;;;3.88;1.50;;;;;;;28.07;42.61;99879.72;4220124;28;20271;-63
2022/08/01 22:45:06;;;;;;;3.78;1.45;;;;;;;28.30;41.90;99873.72;4223316;28;20671;-62
2022/08/01 22:47:18;;;;;;;3.42;1.60;;;;;;;28.00;42.35;99872.63;4198875;28;20294;-62
2022/08/01 22:49:40;;;;;;;2.17;1.42;;;;;;;27.96;42.47;99874.25;4209456;27;20218;-62
2022/08/01 22:52:13;;;;;;;2.90;1.35;;;;;;;28.21;42.37;99872.66;4221590;28;20259;-62
2022/08/01 22:54:22;;;;;;;2.42;1.23;;;;;;;28.12;42.30;99876.97;4211657;28;20226;-62
2022/08/01 22:56:23;;;;;;;4.55;1.58;;;;;;;27.61;43.19;99878.56;4219291;28;20250;-63
2022/08/01 22:58:32;;;;;;;3.13;1.40;;;;;;;27.41;43.67;99876.56;4220389;28;20256;-62
2022/08/01 23:00:34;;;;;;;3.08;1.30;;;;;;;27.28;43.95;99879.00;4221473;27;20758;-63
2022/08/01 23:02:39;;;;;;;4.25;1.17;;;;;;;27.30;44.07;99871.34;4221805;27;20967;-63
2022/08/01 23:04:46;;;;;;;3.38;1.50;;;;;;;27.35;44.27;99874.94;4220544;28;20297;-62
2022/08/01 23:06:52;;;;;;;3.00;1.30;;;;;;;26.94;44.81;99884.81;4220247;27;20283;-63
2022/08/01 23:08:54;;;;;;;2.47;1.50;;;;;;;27.16;44.50;99871.88;4221103;27;20234;-63
2022/08/01 23:10:59;;;;;;;2.45;1.33;;;;;;;27.46;44.10;99859.38;4221557;27;20302;-63
2022/08/01 23:13:02;;;;;;;1.90;1.23;;;;;;;27.24;44.14;99884.16;4220978;28;20291;-63
2022/08/01 23:15:04;;;;;;;4.18;1.25;;;;;;;24.33;49.48;99856.41;4222532;27;20237;-63
2022/08/01 23:17:08;;;;;;;1.20;1.05;;;;;;;24.18;49.08;99859.75;4220668;28;20923;-63
2022/08/01 23:19:32;;;;;;;1.65;1.27;;;;;;;24.34;49.15;99844.50;4220711;28;20336;-63
2022/08/01 23:21:34;;;;;;;5.85;1.40;;;;;;;23.78;51.11;99823.47;4221057;28;20238;-62
2022/08/01 23:23:43;;;;;;;2.22;1.70;;;;;;;25.42;47.91;99820.41;4223572;28;20256;-63
2022/08/01 23:25:47;;;;;;;3.13;1.52;;;;;;;25.62;47.32;99826.28;4224881;27;20233;-63
2022/08/01 23:27:49;;;;;;;2.28;1.40;;;;;;;25.29;47.40;99847.97;4222273;28;20238;-63
2022/08/01 23:30:06;;;;;;;1.70;1.30;;;;;;;25.19;47.78;99848.69;4224399;27;20233;-61
2022/08/01 23:32:08;;;;;;;2.88;1.20;;;;;;;25.96;46.83;99854.97;4224358;27;20237;-62
2022/08/01 23:34:10;;;;;;;1.90;1.70;;;;;;;26.27;46.34;99860.66;4225031;27;20294;-62
2022/08/01 23:36:13;;;;;;;2.15;1.27;;;;;;;27.03;44.65;99861.41;4224270;28;20834;-62
2022/08/01 23:38:15;;;;;;;2.03;1.30;;;;;;;27.10;44.58;99861.19;4223322;27;20241;-63
2022/08/01 23:40:18;;;;;;;2.85;1.50;;;;;;;25.17;48.10;99869.03;4225403;28;20653;-63
2022/08/01 23:42:20;;;;;;;1.85;1.40;;;;;;;25.56;47.81;99839.00;4224417;27;20237;-63
2022/08/01 23:44:21;;;;;;;1.33;1.23;;;;;;;25.47;47.23;99865.06;4224149;28;20249;-63
2022/08/01 23:46:23;;;;;;;2.40;1.27;;;;;;;26.22;46.01;99844.28;4223919;28;20251;-63
2022/08/01 23:48:25;;;;;;;1.88;1.58;;;;;;;24.64;48.97;99855.81;4222145;28;20229;-63
2022/08/01 23:50:27;;;;;;;2.17;1.55;;;;;;;26.23;46.34;99840.44;4222448;27;20287;-63
2022/08/01 23:52:30;;;;;;;1.98;1.20;;;;;;;25.94;46.85;99853.56;4222411;28;20243;-63
2022/08/01 23:54:32;;;;;;;2.13;1.27;;;;;;;26.83;45.23;99856.69;4224742;28;20863;-62
2022/08/01 23:56:36;;;;;;;2.03;1.40;;;;;;;26.40;45.81;99869.47;4224372;28;20295;-62
2022/08/01 23:58:38;;;;;;;3.50;1.50;;;;;;;26.23;46.17;99869.59;4223975;28;20964;-63
